JA7KUB Weather Reports


Display with metric or nautical units.
time (UTC)temp
F
wind
direction
speed
MPH
gust
MPH
rain 1hr
in
rain 24hr
in
rain mn
in
humidity
%
barometer
mb
20190320110319 43 89 0.0 0.0 0.00 0.00 0.00 74 1024.0
20190320103318 44 81 0.0 0.0 0.00 0.00 0.00 73 1024.0
20190320100316 46 94 0.0 0.0 0.00 0.00 0.00 71 1024.0
20190320093316 47 89 0.0 0.0 0.00 0.00 0.00 69 1023.8
20190320090314 50 79 0.0 0.0 0.00 0.00 0.00 64 1023.3
20190320083314 55 85 0.0 0.0 0.00 0.00 0.00 56 1023.0
20190320080332 60 210 2.0 4.0 0.00 0.00 0.00 46 1022.9
20190320073332 61 232 1.0 5.0 0.00 0.00 0.00 44 1022.5
20190320070331 63 294 1.0 8.0 0.00 0.00 0.00 42 1022.1
20190320063331 64 236 3.0 6.0 0.00 0.00 0.00 41 1022.0
20190320060329 65 207 2.0 8.0 0.00 0.00 0.00 39 1021.8
20190320053327 66 195 1.0 7.0 0.00 0.00 0.00 34 1021.6
20190320050326 66 228 3.0 6.0 0.00 0.00 0.00 30 1021.8
20190320043325 66 205 1.0 5.0 0.00 0.00 0.00 23 1021.6
20190320040323 65 191 1.0 6.0 0.00 0.00 0.00 24 1022.2
20190320033322 64 320 2.0 7.0 0.00 0.00 0.00 24 1022.6
20190320030322 63 317 3.0 5.0 0.00 0.00 0.00 28 1022.9
20190320023321 63 219 1.0 7.0 0.00 0.00 0.00 32 1023.1
20190320020321 61 278 4.0 6.0 0.00 0.00 0.00 33 1023.7
20190320013320 59 276 1.0 6.0 0.00 0.00 0.00 35 1023.9
20190320010320 58 118 0.0 4.0 0.00 0.00 0.00 42 1023.9
20190320003319 55 99 0.0 3.0 0.00 0.00 0.00 51 1024.8
20190320000327 53 108 0.0 0.0 0.00 0.00 0.00 60 1024.8
20190319233317 47 98 0.0 0.0 0.00 0.00 0.00 81 1024.9
20190319230314 40 39 0.0 0.0 0.00 0.00 0.00 93 1024.2
20190319223314 36 74 0.0 0.0 0.00 0.00 0.00 94 1024.6
20190319220332 31 75 0.0 0.0 0.00 0.00 0.00 94 1024.4
20190319213331 29 75 0.0 0.0 0.00 0.00 0.00 94 1024.0
20190319210330 28 75 0.0 0.0 0.00 0.00 0.00 93 1023.8
20190319203328 29 75 0.0 0.0 0.00 0.00 0.00 93 1023.5
20190319200326 29 75 0.0 0.0 0.00 0.00 0.00 93 1023.3
20190319193326 30 75 0.0 0.0 0.00 0.00 0.00 93 1023.2
20190319190323 30 75 0.0 0.0 0.00 0.00 0.00 92 1023.2
20190319183323 30 96 0.0 0.0 0.00 0.00 0.00 92 1022.7
20190319180322 30 88 0.0 0.0 0.00 0.00 0.00 92 1022.6
20190319173320 31 79 0.0 0.0 0.00 0.00 0.00 91 1022.6
20190319170319 31 343 0.0 0.0 0.00 0.00 0.00 90 1022.5
20190319163319 32 83 0.0 0.0 0.00 0.00 0.00 89 1022.7
20190319160318 32 85 0.0 0.0 0.00 0.00 0.00 88 1022.4
20190319153318 33 85 0.0 0.0 0.00 0.00 0.00 88 1022.2
20190319150315 33 57 0.0 0.0 0.00 0.00 0.00 86 1021.9
20190319143315 34 56 0.0 0.0 0.00 0.00 0.00 84 1022.3
20190319140314 35 72 0.0 0.0 0.00 0.00 0.00 82 1022.3
20190319133314 37 200 0.0 0.0 0.00 0.00 0.00 79 1021.9
20190319130329 37 75 0.0 0.0 0.00 0.00 0.00 79 1021.9
20190319123328 38 75 0.0 0.0 0.00 0.00 0.00 76 1021.9
20190319120326 39 75 0.0 0.0 0.00 0.00 0.00 72 1022.1
20190319113324 41 81 0.0 0.0 0.00 0.00 0.00 68 1021.9